createdAt,value
2023-04-19T00:01:48.869Z,10.02
2023-04-19T00:04:21.975Z,9.96
2023-04-19T00:06:54.963Z,10.00
2023-04-19T00:09:26.817Z,9.97
2023-04-19T00:11:58.611Z,9.91
2023-04-19T00:14:30.595Z,9.76
2023-04-19T00:17:02.515Z,9.57
2023-04-19T00:19:34.505Z,9.59
2023-04-19T00:22:06.284Z,9.68
2023-04-19T00:24:38.513Z,9.62
2023-04-19T00:27:10.671Z,9.61
2023-04-19T00:29:42.566Z,9.56
2023-04-19T00:32:14.730Z,9.44
2023-04-19T00:34:47.251Z,9.43
2023-04-19T00:37:19.163Z,9.44
2023-04-19T00:39:51.522Z,9.43
2023-04-19T00:42:23.436Z,9.31
2023-04-19T00:44:55.495Z,9.25
2023-04-19T00:47:27.441Z,9.06
2023-04-19T00:50:00.119Z,8.96
2023-04-19T00:52:33.767Z,9.07
2023-04-19T00:55:08.087Z,8.95
2023-04-19T00:57:40.828Z,8.92
2023-04-19T01:00:15.242Z,8.92
2023-04-19T01:02:47.736Z,8.61
2023-04-19T01:05:20.216Z,8.54
2023-04-19T01:07:52.476Z,8.67
2023-04-19T01:10:24.495Z,8.63
2023-04-19T01:12:56.575Z,8.58
2023-04-19T01:15:28.846Z,8.61
2023-04-19T01:18:02.254Z,8.50
2023-04-19T01:20:34.368Z,8.29
2023-04-19T01:23:06.862Z,8.14
2023-04-19T01:25:39.493Z,8.11
2023-04-19T01:28:11.323Z,8.09
2023-04-19T01:30:44.315Z,8.27
2023-04-19T01:33:16.912Z,8.10
2023-04-19T01:35:49.496Z,7.98
2023-04-19T01:38:19.903Z,8.03
2023-04-19T01:40:51.833Z,7.96
2023-04-19T01:43:23.692Z,7.93
2023-04-19T01:45:56.058Z,7.99
2023-04-19T01:48:27.873Z,7.98
2023-04-19T01:50:59.680Z,7.85
2023-04-19T01:53:31.843Z,7.70
2023-04-19T01:56:03.994Z,7.56
2023-04-19T01:58:35.820Z,7.61
2023-04-19T02:01:09.767Z,7.41
2023-04-19T02:03:41.791Z,7.51
2023-04-19T02:06:15.029Z,7.36
2023-04-19T02:08:46.935Z,7.24
2023-04-19T02:11:19.698Z,7.27
2023-04-19T02:13:52.925Z,7.31
2023-04-19T02:16:26.052Z,7.29
2023-04-19T02:18:58.776Z,7.08
2023-04-19T02:21:31.865Z,7.14
2023-04-19T02:24:04.253Z,6.98
2023-04-19T02:26:34.987Z,6.80
2023-04-19T02:29:07.154Z,6.85
2023-04-19T02:31:39.097Z,6.97
2023-04-19T02:34:14.701Z,6.93
2023-04-19T02:36:46.821Z,6.92
2023-04-19T02:39:18.701Z,6.89
2023-04-19T02:41:51.031Z,6.76
2023-04-19T02:44:23.231Z,6.65
2023-04-19T02:46:55.855Z,6.71
2023-04-19T02:49:26.336Z,6.77
2023-04-19T02:51:58.237Z,6.77
2023-04-19T02:54:30.118Z,6.71
2023-04-19T02:57:02.061Z,6.76
2023-04-19T02:59:34.073Z,6.67
2023-04-19T03:02:07.091Z,6.65
2023-04-19T03:04:39.088Z,6.58
2023-04-19T03:07:11.456Z,6.53
2023-04-19T03:09:44.467Z,6.43
2023-04-19T03:12:16.402Z,6.46
2023-04-19T03:14:49.392Z,6.40
2023-04-19T03:17:21.382Z,6.25
2023-04-19T03:19:54.116Z,6.29
2023-04-19T03:22:26.001Z,6.27
2023-04-19T03:24:58.172Z,6.22
2023-04-19T03:27:29.943Z,6.29
2023-04-19T03:30:05.048Z,6.21
2023-04-19T03:32:36.963Z,6.11
2023-04-19T03:35:10.941Z,5.96
2023-04-19T03:37:43.490Z,5.94
2023-04-19T03:40:16.005Z,5.99
2023-04-19T03:42:48.057Z,5.84
2023-04-19T03:45:30.911Z,5.67
2023-04-19T03:48:03.345Z,5.72
2023-04-19T03:50:35.478Z,5.84
2023-04-19T03:53:07.678Z,5.82
2023-04-19T03:55:39.659Z,5.66
2023-04-19T03:58:11.573Z,5.60
2023-04-19T04:00:52.290Z,5.53
2023-04-19T04:03:27.310Z,5.48
2023-04-19T04:06:02.627Z,5.54
2023-04-19T04:08:41.236Z,5.50
2023-04-19T04:11:20.840Z,5.43
2023-04-19T04:13:58.134Z,5.33
2023-04-19T04:16:34.944Z,5.51
2023-04-19T04:19:05.729Z,5.60
2023-04-19T04:21:38.730Z,5.71
2023-04-19T04:24:09.867Z,5.85
2023-04-19T04:26:49.919Z,5.77
2023-04-19T04:29:25.912Z,5.82
2023-04-19T04:31:59.700Z,5.97
2023-04-19T04:34:35.839Z,6.08
2023-04-19T04:37:12.605Z,6.00
2023-04-19T04:39:45.477Z,6.03
2023-04-19T04:42:17.576Z,6.10
2023-04-19T04:44:51.880Z,6.00
2023-04-19T04:47:24.226Z,6.05
2023-04-19T04:49:59.178Z,5.83
2023-04-19T04:52:31.322Z,5.79
2023-04-19T04:55:16.459Z,5.87
2023-04-19T04:57:49.122Z,5.83
2023-04-19T05:00:27.286Z,5.86
2023-04-19T05:03:04.053Z,6.05
2023-04-19T05:05:40.013Z,6.14
2023-04-19T05:08:14.328Z,6.22
2023-04-19T05:10:48.271Z,6.28
2023-04-19T05:13:21.567Z,6.34
2023-04-19T05:15:55.047Z,6.40
2023-04-19T05:18:30.179Z,6.51
2023-04-19T05:21:02.103Z,6.49
2023-04-19T05:23:37.260Z,6.44
2023-04-19T05:26:12.858Z,6.44
2023-04-19T05:28:47.062Z,6.45
2023-04-19T05:31:27.550Z,6.56
2023-04-19T05:34:21.837Z,6.56
2023-04-19T05:37:03.777Z,6.63
2023-04-19T05:39:37.664Z,6.53
2023-04-19T05:42:10.825Z,6.61
2023-04-19T05:44:43.926Z,6.68
2023-04-19T05:47:17.866Z,6.65
2023-04-19T05:50:18.214Z,6.75
2023-04-19T05:52:55.249Z,6.97
2023-04-19T05:55:26.650Z,7.03
2023-04-19T05:58:01.316Z,7.10
2023-04-19T06:00:34.297Z,7.09
2023-04-19T06:03:12.564Z,6.99
2023-04-19T06:05:45.533Z,7.10
2023-04-19T06:08:18.955Z,7.22
2023-04-19T06:10:55.592Z,7.15
2023-04-19T06:13:35.389Z,7.20
2023-04-19T06:16:09.439Z,7.24
2023-04-19T06:18:43.804Z,7.27
2023-04-19T06:21:16.178Z,7.27
2023-04-19T06:23:49.404Z,7.24
2023-04-19T06:26:21.738Z,7.12
2023-04-19T06:28:57.459Z,7.05
2023-04-19T06:31:30.372Z,7.10
2023-04-19T06:34:02.716Z,7.16
2023-04-19T06:36:33.553Z,7.27
2023-04-19T06:39:05.975Z,7.01
2023-04-19T06:41:38.168Z,7.02
2023-04-19T06:44:12.033Z,7.01
2023-04-19T06:46:44.541Z,6.92
2023-04-19T06:49:16.640Z,6.82
2023-04-19T06:51:49.481Z,6.84
2023-04-19T06:54:22.271Z,6.85
2023-04-19T06:56:57.151Z,6.74
2023-04-19T06:59:32.390Z,6.78
2023-04-19T07:02:04.540Z,6.71
2023-04-19T07:04:37.167Z,6.70
2023-04-19T07:07:09.338Z,6.70
2023-04-19T07:09:41.686Z,6.72
2023-04-19T07:12:13.979Z,6.82
2023-04-19T07:14:46.673Z,7.11
2023-04-19T07:17:20.438Z,7.12
2023-04-19T07:19:58.949Z,7.06
2023-04-19T07:22:31.458Z,7.15
2023-04-19T07:25:04.633Z,7.33
2023-04-19T07:27:37.994Z,7.32
2023-04-19T07:30:13.833Z,7.39
2023-04-19T07:32:47.953Z,7.40
2023-04-19T07:35:21.408Z,7.39
2023-04-19T07:37:52.444Z,7.44
2023-04-19T07:40:28.465Z,7.33
2023-04-19T07:43:01.805Z,7.31
2023-04-19T07:45:34.848Z,7.25
2023-04-19T07:48:08.007Z,7.24
2023-04-19T07:50:40.796Z,7.18
2023-04-19T07:53:14.926Z,7.21
2023-04-19T07:55:45.625Z,7.18
2023-04-19T07:58:18.025Z,7.23
2023-04-19T08:00:50.627Z,7.17
2023-04-19T08:03:24.116Z,7.22
2023-04-19T08:05:57.789Z,7.28
2023-04-19T08:08:33.629Z,7.43
2023-04-19T08:11:07.720Z,7.29
2023-04-19T08:13:42.138Z,7.20
2023-04-19T08:17:05.923Z,7.17
2023-04-19T08:19:12.475Z,7.29
2023-04-19T08:21:45.184Z,7.25
2023-04-19T08:24:15.657Z,7.15
2023-04-19T08:26:53.629Z,7.08
2023-04-19T08:29:25.866Z,7.08
2023-04-19T08:31:57.869Z,6.94
2023-04-19T08:34:30.591Z,6.93
2023-04-19T08:37:04.719Z,6.86
2023-04-19T08:39:37.873Z,6.68
2023-04-19T08:42:24.634Z,6.56
2023-04-19T08:47:52.502Z,6.52
2023-04-19T08:50:40.466Z,6.42
2023-04-19T08:53:25.724Z,6.43
2023-04-19T08:56:12.739Z,6.10
2023-04-19T08:59:07.448Z,6.07
2023-04-19T09:01:44.834Z,6.03
2023-04-19T09:04:35.600Z,6.02
2023-04-19T09:07:09.630Z,6.09
2023-04-19T09:09:59.681Z,6.07
2023-04-19T09:12:33.299Z,5.98
2023-04-19T09:15:08.965Z,5.96
2023-04-19T09:17:43.749Z,5.88
2023-04-19T09:20:15.895Z,5.75
2023-04-19T09:23:06.556Z,5.68
2023-04-19T09:25:52.933Z,5.78
2023-04-19T09:28:32.109Z,5.76
2023-04-19T09:31:33.361Z,5.76
2023-04-19T09:34:18.031Z,5.97
2023-04-19T09:36:54.602Z,5.99
2023-04-19T09:39:33.814Z,5.97
2023-04-19T09:42:07.165Z,6.02
2023-04-19T09:47:26.030Z,6.20
2023-04-19T09:50:22.778Z,6.24
2023-04-19T09:52:56.594Z,6.37
2023-04-19T09:55:57.170Z,6.47
2023-04-19T09:58:49.988Z,6.46
2023-04-19T10:01:26.818Z,6.49
2023-04-19T10:04:13.749Z,6.60
2023-04-19T10:07:19.510Z,6.61
2023-04-19T10:09:53.654Z,6.52
2023-04-19T10:15:05.006Z,6.67
2023-04-19T10:17:37.316Z,6.75
2023-04-19T10:20:14.860Z,6.84
2023-04-19T10:22:49.519Z,6.79
2023-04-19T10:25:31.803Z,6.72
2023-04-19T10:28:04.170Z,6.84
2023-04-19T10:30:36.804Z,6.82
2023-04-19T10:33:07.770Z,6.91
2023-04-19T10:35:41.884Z,6.81
2023-04-19T10:38:21.521Z,6.67
2023-04-19T10:41:05.664Z,6.76
2023-04-19T10:43:46.797Z,6.86
2023-04-19T10:46:37.401Z,6.73
2023-04-19T10:49:15.830Z,6.79
2023-04-19T10:51:54.879Z,6.84
2023-04-19T10:54:36.476Z,6.93
2023-04-19T10:57:11.452Z,6.78
2023-04-19T10:59:44.448Z,6.67
2023-04-19T11:02:34.179Z,6.51
2023-04-19T11:05:08.480Z,6.68
2023-04-19T11:07:44.349Z,6.70
2023-04-19T11:10:31.553Z,6.76
2023-04-19T11:13:04.050Z,6.84
2023-04-19T11:15:44.805Z,6.94
2023-04-19T11:18:22.775Z,7.03
2023-04-19T11:21:01.185Z,6.95
2023-04-19T11:23:33.239Z,6.92
2023-04-19T11:26:06.746Z,6.87
2023-04-19T11:28:39.095Z,6.83
2023-04-19T11:31:11.260Z,6.82
2023-04-19T11:33:45.199Z,6.89
2023-04-19T11:36:19.020Z,6.90
2023-04-19T11:38:53.545Z,6.89
2023-04-19T11:41:26.525Z,6.95
2023-04-19T11:44:02.765Z,6.93
2023-04-19T11:46:36.001Z,7.02
2023-04-19T11:49:09.596Z,7.16
2023-04-19T11:51:46.439Z,7.20
2023-04-19T11:54:19.125Z,7.34
2023-04-19T11:57:06.121Z,7.31
2023-04-19T11:59:43.627Z,7.27
2023-04-19T12:02:21.763Z,7.34
2023-04-19T12:04:54.714Z,7.40
2023-04-19T12:07:26.858Z,7.54
2023-04-19T12:10:10.275Z,7.65
2023-04-19T12:12:42.802Z,7.62
2023-04-19T12:15:15.270Z,7.65
2023-04-19T12:18:01.894Z,7.76
2023-04-19T12:20:36.007Z,7.68
2023-04-19T12:23:13.444Z,7.72
2023-04-19T12:25:48.553Z,7.70
2023-04-19T12:28:26.189Z,7.79
2023-04-19T12:30:59.077Z,7.75
2023-04-19T12:33:30.747Z,7.72
2023-04-19T12:36:03.458Z,7.63
2023-04-19T12:38:37.674Z,7.62
2023-04-19T12:41:09.798Z,7.58
2023-04-19T12:43:42.450Z,7.59
2023-04-19T12:46:15.649Z,7.74
2023-04-19T12:48:49.305Z,7.89
2023-04-19T12:51:21.982Z,7.97
2023-04-19T12:53:55.542Z,7.99
2023-04-19T12:56:27.698Z,8.01
2023-04-19T12:58:59.709Z,7.94
2023-04-19T13:01:33.320Z,7.91
2023-04-19T13:04:08.098Z,7.89
2023-04-19T13:06:45.057Z,7.90
2023-04-19T13:09:17.735Z,7.84
2023-04-19T13:11:49.722Z,7.85
2023-04-19T13:14:21.659Z,7.88
2023-04-19T13:16:53.946Z,7.94
2023-04-19T13:19:25.958Z,8.04
2023-04-19T13:21:57.968Z,8.09
2023-04-19T13:24:30.105Z,8.09
2023-04-19T13:27:02.370Z,7.97
2023-04-19T13:29:34.818Z,7.86
2023-04-19T13:32:12.431Z,7.96
2023-04-19T13:34:44.983Z,8.02
2023-04-19T13:37:17.060Z,8.08
2023-04-19T13:39:49.111Z,8.13
2023-04-19T13:42:22.723Z,7.89
2023-04-19T13:44:54.595Z,7.83
2023-04-19T13:47:26.898Z,7.83
2023-04-19T13:49:59.347Z,7.89
2023-04-19T13:52:31.363Z,7.83
2023-04-19T13:55:03.540Z,7.84
2023-04-19T13:57:35.588Z,7.91
2023-04-19T14:00:11.437Z,7.85
2023-04-19T14:02:45.051Z,7.95
2023-04-19T14:05:17.370Z,8.02
2023-04-19T14:07:49.515Z,8.09
2023-04-19T14:10:22.527Z,8.19
2023-04-19T14:12:55.463Z,8.21
2023-04-19T14:15:26.707Z,8.32
2023-04-19T14:17:58.967Z,8.38
2023-04-19T14:20:31.443Z,8.45
2023-04-19T14:23:04.962Z,8.50
2023-04-19T14:25:37.376Z,8.51
2023-04-19T14:28:09.589Z,8.52
2023-04-19T14:30:41.568Z,8.48
2023-04-19T14:33:13.633Z,8.55
2023-04-19T14:35:46.106Z,8.51
2023-04-19T14:38:18.552Z,8.47
2023-04-19T14:40:50.801Z,8.50
2023-04-19T14:43:22.895Z,8.58
2023-04-19T14:45:55.616Z,8.60
2023-04-19T14:48:26.488Z,8.61
2023-04-19T14:50:58.638Z,8.59
2023-04-19T14:53:33.480Z,8.42
2023-04-19T14:56:08.346Z,8.48
2023-04-19T14:58:40.516Z,8.51
2023-04-19T15:01:16.309Z,8.55
2023-04-19T15:03:48.674Z,8.58
2023-04-19T15:06:20.943Z,8.62
2023-04-19T15:08:53.542Z,8.60
2023-04-19T15:11:25.823Z,8.64
2023-04-19T15:13:58.150Z,8.70
2023-04-19T15:16:31.778Z,8.70
2023-04-19T15:19:07.424Z,8.75
2023-04-19T15:21:42.373Z,8.77
2023-04-19T15:24:14.507Z,8.77
2023-04-19T15:26:46.613Z,8.79
2023-04-19T15:29:18.833Z,8.78
2023-04-19T15:31:51.430Z,8.69
2023-04-19T15:34:25.359Z,8.54
2023-04-19T15:36:57.441Z,8.62
2023-04-19T15:39:29.562Z,8.67
2023-04-19T15:42:02.208Z,8.58
2023-04-19T15:44:36.135Z,8.58
2023-04-19T15:47:13.520Z,8.63
2023-04-19T15:49:47.210Z,8.68
2023-04-19T15:52:19.327Z,8.71
2023-04-19T15:54:53.855Z,8.74
2023-04-19T15:57:28.762Z,8.69
2023-04-19T16:00:01.381Z,8.58
2023-04-19T16:02:34.786Z,8.55
2023-04-19T16:05:07.902Z,8.46
2023-04-19T16:07:38.167Z,8.53
2023-04-19T16:10:11.037Z,8.54
2023-04-19T16:12:44.287Z,8.51
2023-04-19T16:15:16.300Z,8.47
2023-04-19T16:17:48.227Z,8.47
2023-04-19T16:20:20.671Z,8.46
2023-04-19T16:22:52.700Z,8.49
2023-04-19T16:25:24.502Z,8.49
2023-04-19T16:27:56.395Z,8.49
2023-04-19T16:30:28.830Z,8.60
2023-04-19T16:33:04.508Z,8.59
2023-04-19T16:35:36.533Z,8.63
2023-04-19T16:38:08.901Z,8.66
2023-04-19T16:40:40.805Z,8.71
2023-04-19T16:43:12.777Z,8.73
2023-04-19T16:45:44.893Z,8.75
2023-04-19T16:48:17.003Z,8.58
2023-04-19T16:50:49.979Z,8.63
2023-04-19T16:53:20.737Z,8.64
2023-04-19T16:55:53.530Z,8.62
2023-04-19T16:58:28.066Z,8.65
2023-04-19T17:01:01.897Z,8.59
2023-04-19T17:03:35.014Z,8.57
2023-04-19T17:06:07.901Z,8.55
2023-04-19T17:08:39.748Z,8.60
2023-04-19T17:11:11.652Z,8.61
2023-04-19T17:13:43.724Z,8.58
2023-04-19T17:16:15.731Z,8.60
2023-04-19T17:18:48.091Z,8.65
2023-04-19T17:21:23.449Z,8.66
2023-04-19T17:23:55.769Z,8.62
2023-04-19T17:26:28.079Z,8.66
2023-04-19T17:29:01.780Z,8.64
2023-04-19T17:31:34.147Z,8.55
2023-04-19T17:34:07.176Z,8.54
2023-04-19T17:36:39.172Z,8.59
2023-04-19T17:39:11.056Z,8.62
2023-04-19T17:41:44.718Z,8.65
2023-04-19T17:44:16.595Z,8.64
2023-04-19T17:46:48.418Z,8.57
2023-04-19T17:49:21.733Z,8.46
2023-04-19T17:51:53.516Z,8.48
2023-04-19T17:54:25.547Z,8.57
2023-04-19T17:56:59.329Z,8.64
2023-04-19T17:59:31.564Z,8.64
2023-04-19T18:02:04.562Z,8.68
2023-04-19T18:04:37.759Z,8.66
2023-04-19T18:07:10.521Z,8.65
2023-04-19T18:09:43.019Z,8.65
2023-04-19T18:12:14.696Z,8.62
2023-04-19T18:14:46.567Z,8.64
2023-04-19T18:17:18.399Z,8.60
2023-04-19T18:19:50.183Z,8.59
2023-04-19T18:22:21.962Z,8.63
2023-04-19T18:24:55.706Z,8.62
2023-04-19T18:27:29.708Z,8.61
2023-04-19T18:30:05.711Z,8.64
2023-04-19T18:32:43.946Z,8.68
2023-04-19T18:35:28.470Z,8.69
2023-04-19T18:38:11.710Z,8.69
2023-04-19T18:40:46.982Z,8.65
2023-04-19T18:43:20.523Z,8.68
2023-04-19T18:46:02.993Z,8.65
2023-04-19T18:48:39.709Z,8.60
2023-04-19T18:51:16.166Z,8.65
2023-04-19T18:53:52.051Z,8.67
2023-04-19T18:57:03.822Z,8.67
2023-04-19T18:59:21.773Z,8.67
2023-04-19T19:01:59.274Z,8.64
2023-04-19T19:07:33.317Z,8.65
2023-04-19T19:10:16.971Z,8.68
2023-04-19T19:12:55.889Z,8.67
2023-04-19T19:15:38.493Z,8.65
2023-04-19T19:18:15.158Z,8.56
2023-04-19T19:20:49.669Z,8.58
2023-04-19T19:23:35.299Z,8.59
2023-04-19T19:26:09.269Z,8.63
2023-04-19T19:28:47.352Z,8.64
2023-04-19T19:31:25.513Z,8.63
2023-04-19T19:34:22.005Z,8.60
2023-04-19T19:36:55.279Z,8.61
2023-04-19T19:39:28.363Z,8.58
2023-04-19T19:42:06.080Z,8.48
2023-04-19T19:44:40.790Z,8.42
2023-04-19T19:47:17.242Z,8.40
2023-04-19T19:50:31.444Z,8.37
2023-04-19T19:52:45.528Z,8.29
2023-04-19T19:55:18.832Z,8.27
2023-04-19T20:03:07.128Z,8.26
2023-04-19T20:05:41.465Z,8.32
2023-04-19T20:08:16.898Z,8.37
2023-04-19T20:10:49.926Z,8.41
2023-04-19T20:13:23.726Z,8.45
2023-04-19T20:15:58.859Z,8.47
2023-04-19T20:18:32.658Z,8.35
2023-04-19T20:21:05.895Z,8.18
2023-04-19T20:23:41.556Z,8.19
2023-04-19T20:26:15.525Z,8.26
2023-04-19T20:28:52.270Z,8.25
2023-04-19T20:31:27.227Z,8.30
2023-04-19T20:34:05.143Z,8.26
2023-04-19T20:36:40.693Z,8.27
2023-04-19T20:39:19.523Z,8.25
2023-04-19T20:41:54.052Z,8.23
2023-04-19T20:44:28.028Z,8.26
2023-04-19T20:47:02.871Z,8.27
2023-04-19T20:49:39.152Z,8.32
2023-04-19T20:52:14.219Z,8.39
2023-04-19T20:54:50.367Z,8.30
2023-04-19T20:57:28.083Z,8.30
2023-04-19T21:00:04.908Z,8.38
2023-04-19T21:02:39.960Z,8.41
2023-04-19T21:05:12.850Z,8.38
2023-04-19T21:07:46.865Z,8.41
2023-04-19T21:10:22.357Z,8.43
2023-04-19T21:12:59.501Z,8.45
2023-04-19T21:15:38.219Z,8.40
2023-04-19T21:18:12.260Z,8.33
2023-04-19T21:20:45.388Z,8.35
2023-04-19T21:23:20.794Z,8.28
2023-04-19T21:25:58.114Z,8.33
2023-04-19T21:28:39.663Z,8.31
2023-04-19T21:31:12.357Z,8.35
2023-04-19T21:33:45.768Z,8.27
2023-04-19T21:36:19.050Z,8.23
2023-04-19T21:38:52.848Z,8.37
2023-04-19T21:41:26.290Z,8.39
2023-04-19T21:43:57.035Z,8.42
2023-04-19T21:46:31.908Z,8.35
2023-04-19T21:49:04.719Z,8.31
2023-04-19T21:51:38.954Z,8.30
2023-04-19T21:54:20.547Z,8.24
2023-04-19T21:57:04.279Z,8.22
2023-04-19T21:59:37.910Z,8.19
2023-04-19T22:02:11.482Z,8.19
2023-04-19T22:04:45.905Z,8.21
2023-04-19T22:07:21.219Z,8.26
2023-04-19T22:09:54.914Z,8.22
2023-04-19T22:12:27.193Z,8.26
2023-04-19T22:14:59.032Z,8.28
2023-04-19T22:17:32.454Z,8.35
2023-04-19T22:20:08.491Z,8.35
2023-04-19T22:22:40.958Z,8.32
2023-04-19T22:25:13.183Z,8.36
2023-04-19T22:27:45.450Z,8.37
2023-04-19T22:30:17.572Z,8.29
2023-04-19T22:32:49.841Z,8.29
2023-04-19T22:35:22.874Z,8.35
2023-04-19T22:37:55.059Z,8.30
2023-04-19T22:40:26.996Z,8.35
2023-04-19T22:42:58.699Z,8.39
2023-04-19T22:45:30.494Z,8.41
2023-04-19T22:48:03.239Z,8.45
2023-04-19T22:50:35.406Z,8.46
2023-04-19T22:53:07.171Z,8.43
2023-04-19T22:55:39.115Z,8.42
2023-04-19T22:58:11.642Z,8.40
2023-04-19T23:00:43.489Z,8.34
2023-04-19T23:03:15.863Z,8.33
2023-04-19T23:05:48.129Z,8.29
2023-04-19T23:08:19.985Z,8.37
2023-04-19T23:10:52.025Z,8.44
2023-04-19T23:13:23.796Z,8.48
2023-04-19T23:15:55.919Z,8.48
2023-04-19T23:18:27.884Z,8.41
2023-04-19T23:20:59.681Z,8.36
2023-04-19T23:23:31.437Z,8.38
2023-04-19T23:26:03.190Z,8.41
2023-04-19T23:28:35.109Z,8.33
2023-04-19T23:31:07.027Z,8.31
2023-04-19T23:33:38.850Z,8.29
2023-04-19T23:36:11.539Z,8.31
2023-04-19T23:38:43.556Z,8.39
2023-04-19T23:41:15.307Z,8.40
2023-04-19T23:43:48.943Z,8.35
2023-04-19T23:46:20.743Z,8.42
2023-04-19T23:48:52.586Z,8.46
2023-04-19T23:51:24.701Z,8.40
2023-04-19T23:53:56.358Z,8.36
2023-04-19T23:56:28.150Z,8.37
2023-04-19T23:58:59.902Z,8.34
